sensor_id;sensor_type;location;lat;lon;timestamp;temperature;humidity
10433;DHT22;5263;48.680;9.004;2023-03-17T00:00:46;3.50;99.90
10433;DHT22;5263;48.680;9.004;2023-03-17T00:03:24;3.30;99.90
10433;DHT22;5263;48.680;9.004;2023-03-17T00:05:52;3.30;99.90
10433;DHT22;5263;48.680;9.004;2023-03-17T00:08:36;3.40;99.90
10433;DHT22;5263;48.680;9.004;2023-03-17T00:11:02;3.70;99.90
10433;DHT22;5263;48.680;9.004;2023-03-17T00:13:28;3.80;99.90
10433;DHT22;5263;48.680;9.004;2023-03-17T00:16:00;3.70;99.90
10433;DHT22;5263;48.680;9.004;2023-03-17T00:18:26;3.80;99.90
10433;DHT22;5263;48.680;9.004;2023-03-17T00:20:54;3.80;99.90
10433;DHT22;5263;48.680;9.004;2023-03-17T00:23:21;3.70;99.90
10433;DHT22;5263;48.680;9.004;2023-03-17T00:25:49;3.90;99.90
10433;DHT22;5263;48.680;9.004;2023-03-17T00:28:19;4.10;99.90
10433;DHT22;5263;48.680;9.004;2023-03-17T00:30:47;3.90;99.90
10433;DHT22;5263;48.680;9.004;2023-03-17T00:33:15;3.90;99.90
10433;DHT22;5263;48.680;9.004;2023-03-17T00:35:42;4.00;99.90
10433;DHT22;5263;48.680;9.004;2023-03-17T00:38:18;4.10;99.90
10433;DHT22;5263;48.680;9.004;2023-03-17T00:40:46;4.20;99.90
10433;DHT22;5263;48.680;9.004;2023-03-17T00:43:12;4.20;99.90
10433;DHT22;5263;48.680;9.004;2023-03-17T00:45:41;4.10;99.90
10433;DHT22;5263;48.680;9.004;2023-03-17T00:48:19;4.20;99.90
10433;DHT22;5263;48.680;9.004;2023-03-17T00:50:48;4.00;99.90
10433;DHT22;5263;48.680;9.004;2023-03-17T00:53:18;4.10;99.90
10433;DHT22;5263;48.680;9.004;2023-03-17T00:55:46;4.00;99.90
10433;DHT22;5263;48.680;9.004;2023-03-17T00:58:23;4.00;99.90
10433;DHT22;5263;48.680;9.004;2023-03-17T01:00:50;3.80;99.90
10433;DHT22;5263;48.680;9.004;2023-03-17T01:03:16;3.60;99.90
10433;DHT22;5263;48.680;9.004;2023-03-17T01:05:42;3.40;99.90
10433;DHT22;5263;48.680;9.004;2023-03-17T01:08:08;3.20;99.90
10433;DHT22;5263;48.680;9.004;2023-03-17T01:10:34;3.40;99.90
10433;DHT22;5263;48.680;9.004;2023-03-17T01:13:01;3.60;99.90
10433;DHT22;5263;48.680;9.004;2023-03-17T01:15:29;3.80;99.90
10433;DHT22;5263;48.680;9.004;2023-03-17T01:17:56;3.80;99.90
10433;DHT22;5263;48.680;9.004;2023-03-17T01:20:25;3.80;99.90
10433;DHT22;5263;48.680;9.004;2023-03-17T01:22:52;3.80;99.90
10433;DHT22;5263;48.680;9.004;2023-03-17T01:25:18;3.90;99.90
10433;DHT22;5263;48.680;9.004;2023-03-17T01:27:45;4.00;99.90
10433;DHT22;5263;48.680;9.004;2023-03-17T01:30:22;3.80;99.90
10433;DHT22;5263;48.680;9.004;2023-03-17T01:32:48;3.70;99.90
10433;DHT22;5263;48.680;9.004;2023-03-17T01:35:14;3.40;99.90
10433;DHT22;5263;48.680;9.004;2023-03-17T01:37:40;3.70;99.90
10433;DHT22;5263;48.680;9.004;2023-03-17T01:40:10;3.80;99.90
10433;DHT22;5263;48.680;9.004;2023-03-17T01:42:38;4.00;99.90
10433;DHT22;5263;48.680;9.004;2023-03-17T01:46:04;4.10;99.90
10433;DHT22;5263;48.680;9.004;2023-03-17T01:47:52;4.20;99.90
10433;DHT22;5263;48.680;9.004;2023-03-17T01:50:18;4.20;99.90
10433;DHT22;5263;48.680;9.004;2023-03-17T01:52:44;4.30;99.90
10433;DHT22;5263;48.680;9.004;2023-03-17T01:55:15;4.10;99.90
10433;DHT22;5263;48.680;9.004;2023-03-17T01:57:47;4.00;99.90
10433;DHT22;5263;48.680;9.004;2023-03-17T02:00:22;3.70;99.90
10433;DHT22;5263;48.680;9.004;2023-03-17T02:02:51;3.70;99.90
10433;DHT22;5263;48.680;9.004;2023-03-17T02:05:20;3.60;99.90
10433;DHT22;5263;48.680;9.004;2023-03-17T02:07:46;3.60;99.90
10433;DHT22;5263;48.680;9.004;2023-03-17T02:10:13;3.50;99.90
10433;DHT22;5263;48.680;9.004;2023-03-17T02:12:41;3.60;99.90
10433;DHT22;5263;48.680;9.004;2023-03-17T02:15:09;3.40;99.90
10433;DHT22;5263;48.680;9.004;2023-03-17T02:17:36;3.50;99.90
10433;DHT22;5263;48.680;9.004;2023-03-17T02:22:58;3.60;99.90
10433;DHT22;5263;48.680;9.004;2023-03-17T02:25:25;3.70;99.90
10433;DHT22;5263;48.680;9.004;2023-03-17T02:27:56;3.60;99.90
10433;DHT22;5263;48.680;9.004;2023-03-17T02:30:24;3.50;99.90
10433;DHT22;5263;48.680;9.004;2023-03-17T02:32:50;3.60;99.90
10433;DHT22;5263;48.680;9.004;2023-03-17T02:35:16;3.60;99.90
10433;DHT22;5263;48.680;9.004;2023-03-17T02:37:43;3.50;99.90
10433;DHT22;5263;48.680;9.004;2023-03-17T02:40:11;3.50;99.90
10433;DHT22;5263;48.680;9.004;2023-03-17T02:42:38;3.50;99.90
10433;DHT22;5263;48.680;9.004;2023-03-17T02:45:05;3.60;99.90
10433;DHT22;5263;48.680;9.004;2023-03-17T02:47:31;3.70;99.90
10433;DHT22;5263;48.680;9.004;2023-03-17T02:49:57;3.70;99.90
10433;DHT22;5263;48.680;9.004;2023-03-17T02:52:24;3.70;99.90
10433;DHT22;5263;48.680;9.004;2023-03-17T02:54:50;3.80;99.90
10433;DHT22;5263;48.680;9.004;2023-03-17T02:57:16;3.90;99.90
10433;DHT22;5263;48.680;9.004;2023-03-17T02:59:41;3.90;99.90
10433;DHT22;5263;48.680;9.004;2023-03-17T03:02:08;3.90;99.90
10433;DHT22;5263;48.680;9.004;2023-03-17T03:04:33;3.90;99.90
10433;DHT22;5263;48.680;9.004;2023-03-17T03:07:00;4.00;99.90
10433;DHT22;5263;48.680;9.004;2023-03-17T03:09:25;4.00;99.90
10433;DHT22;5263;48.680;9.004;2023-03-17T03:11:51;3.90;99.90
10433;DHT22;5263;48.680;9.004;2023-03-17T03:14:17;3.90;99.90
10433;DHT22;5263;48.680;9.004;2023-03-17T03:16:43;4.10;99.90
10433;DHT22;5263;48.680;9.004;2023-03-17T03:19:09;4.10;99.90
10433;DHT22;5263;48.680;9.004;2023-03-17T03:21:35;3.90;99.90
10433;DHT22;5263;48.680;9.004;2023-03-17T03:24:02;4.10;99.90
10433;DHT22;5263;48.680;9.004;2023-03-17T03:26:27;4.10;99.90
10433;DHT22;5263;48.680;9.004;2023-03-17T03:28:53;4.10;99.90
10433;DHT22;5263;48.680;9.004;2023-03-17T03:31:21;3.80;99.90
10433;DHT22;5263;48.680;9.004;2023-03-17T03:33:47;3.80;99.90
10433;DHT22;5263;48.680;9.004;2023-03-17T03:36:12;3.80;99.90
10433;DHT22;5263;48.680;9.004;2023-03-17T03:38:39;3.70;99.90
10433;DHT22;5263;48.680;9.004;2023-03-17T03:41:06;3.80;99.90
10433;DHT22;5263;48.680;9.004;2023-03-17T03:43:32;3.70;99.90
10433;DHT22;5263;48.680;9.004;2023-03-17T03:45:58;3.70;99.90
10433;DHT22;5263;48.680;9.004;2023-03-17T03:48:24;3.70;99.90
10433;DHT22;5263;48.680;9.004;2023-03-17T03:50:56;3.50;99.90
10433;DHT22;5263;48.680;9.004;2023-03-17T03:53:22;3.30;99.90
10433;DHT22;5263;48.680;9.004;2023-03-17T03:55:48;3.40;99.90
10433;DHT22;5263;48.680;9.004;2023-03-17T03:58:13;3.30;99.90
10433;DHT22;5263;48.680;9.004;2023-03-17T04:00:39;3.30;99.90
10433;DHT22;5263;48.680;9.004;2023-03-17T04:03:05;3.10;99.90
10433;DHT22;5263;48.680;9.004;2023-03-17T04:05:30;3.00;99.90
10433;DHT22;5263;48.680;9.004;2023-03-17T04:07:57;3.10;99.90
10433;DHT22;5263;48.680;9.004;2023-03-17T04:10:22;2.90;99.90
10433;DHT22;5263;48.680;9.004;2023-03-17T04:12:48;2.90;99.90
10433;DHT22;5263;48.680;9.004;2023-03-17T04:15:15;2.40;99.90
10433;DHT22;5263;48.680;9.004;2023-03-17T04:17:42;2.30;99.90
10433;DHT22;5263;48.680;9.004;2023-03-17T04:20:09;2.30;99.90
10433;DHT22;5263;48.680;9.004;2023-03-17T04:22:35;2.30;99.90
10433;DHT22;5263;48.680;9.004;2023-03-17T04:25:01;2.30;99.90
10433;DHT22;5263;48.680;9.004;2023-03-17T04:27:27;2.40;99.90
10433;DHT22;5263;48.680;9.004;2023-03-17T04:29:52;2.40;99.90
10433;DHT22;5263;48.680;9.004;2023-03-17T04:32:18;2.40;99.90
10433;DHT22;5263;48.680;9.004;2023-03-17T04:34:44;2.50;99.90
10433;DHT22;5263;48.680;9.004;2023-03-17T04:37:10;2.70;99.90
10433;DHT22;5263;48.680;9.004;2023-03-17T04:39:36;2.60;99.90
10433;DHT22;5263;48.680;9.004;2023-03-17T04:42:05;2.70;99.90
10433;DHT22;5263;48.680;9.004;2023-03-17T04:44:31;2.60;99.90
10433;DHT22;5263;48.680;9.004;2023-03-17T04:46:57;2.70;99.90
10433;DHT22;5263;48.680;9.004;2023-03-17T04:49:22;2.70;99.90
10433;DHT22;5263;48.680;9.004;2023-03-17T04:51:48;2.80;99.90
10433;DHT22;5263;48.680;9.004;2023-03-17T04:54:14;2.70;99.90
10433;DHT22;5263;48.680;9.004;2023-03-17T04:56:40;2.10;99.90
10433;DHT22;5263;48.680;9.004;2023-03-17T04:59:06;2.00;99.90
10433;DHT22;5263;48.680;9.004;2023-03-17T05:01:32;1.90;99.90
10433;DHT22;5263;48.680;9.004;2023-03-17T05:03:57;2.20;99.90
10433;DHT22;5263;48.680;9.004;2023-03-17T05:06:23;2.10;99.90
10433;DHT22;5263;48.680;9.004;2023-03-17T05:08:49;2.00;99.90
10433;DHT22;5263;48.680;9.004;2023-03-17T05:11:14;2.00;99.90
10433;DHT22;5263;48.680;9.004;2023-03-17T05:13:40;1.90;99.90
10433;DHT22;5263;48.680;9.004;2023-03-17T05:16:07;1.90;99.90
10433;DHT22;5263;48.680;9.004;2023-03-17T05:18:33;1.70;99.90
10433;DHT22;5263;48.680;9.004;2023-03-17T05:20:59;1.80;99.90
10433;DHT22;5263;48.680;9.004;2023-03-17T05:23:25;1.80;99.90
10433;DHT22;5263;48.680;9.004;2023-03-17T05:25:51;1.70;99.90
10433;DHT22;5263;48.680;9.004;2023-03-17T05:28:18;1.60;99.90
10433;DHT22;5263;48.680;9.004;2023-03-17T05:30:45;1.70;99.90
10433;DHT22;5263;48.680;9.004;2023-03-17T05:33:12;1.60;99.90
10433;DHT22;5263;48.680;9.004;2023-03-17T05:35:39;1.80;99.90
10433;DHT22;5263;48.680;9.004;2023-03-17T05:38:05;1.90;99.90
10433;DHT22;5263;48.680;9.004;2023-03-17T05:40:31;1.80;99.90
10433;DHT22;5263;48.680;9.004;2023-03-17T05:42:56;1.80;99.90
10433;DHT22;5263;48.680;9.004;2023-03-17T05:45:22;2.00;99.90
10433;DHT22;5263;48.680;9.004;2023-03-17T05:47:48;2.20;99.90
10433;DHT22;5263;48.680;9.004;2023-03-17T05:50:13;2.20;99.90
10433;DHT22;5263;48.680;9.004;2023-03-17T05:52:39;2.30;99.90
10433;DHT22;5263;48.680;9.004;2023-03-17T05:55:05;2.30;99.90
10433;DHT22;5263;48.680;9.004;2023-03-17T05:57:32;2.40;99.90
10433;DHT22;5263;48.680;9.004;2023-03-17T05:59:57;2.40;99.90
10433;DHT22;5263;48.680;9.004;2023-03-17T06:02:23;2.40;99.90
10433;DHT22;5263;48.680;9.004;2023-03-17T06:04:49;2.10;99.90
10433;DHT22;5263;48.680;9.004;2023-03-17T06:07:15;2.10;99.90
10433;DHT22;5263;48.680;9.004;2023-03-17T06:09:41;2.20;99.90
10433;DHT22;5263;48.680;9.004;2023-03-17T06:12:08;2.20;99.90
10433;DHT22;5263;48.680;9.004;2023-03-17T06:14:33;2.30;99.90
10433;DHT22;5263;48.680;9.004;2023-03-17T06:17:00;2.10;99.90
10433;DHT22;5263;48.680;9.004;2023-03-17T06:19:27;2.30;99.90
10433;DHT22;5263;48.680;9.004;2023-03-17T06:21:52;2.40;99.90
10433;DHT22;5263;48.680;9.004;2023-03-17T06:24:18;2.50;99.90
10433;DHT22;5263;48.680;9.004;2023-03-17T06:26:43;2.60;99.90
10433;DHT22;5263;48.680;9.004;2023-03-17T06:29:09;2.60;99.90
10433;DHT22;5263;48.680;9.004;2023-03-17T06:31:37;2.70;99.90
10433;DHT22;5263;48.680;9.004;2023-03-17T06:34:03;2.60;99.90
10433;DHT22;5263;48.680;9.004;2023-03-17T06:36:30;2.60;99.90
10433;DHT22;5263;48.680;9.004;2023-03-17T06:38:57;2.90;99.90
10433;DHT22;5263;48.680;9.004;2023-03-17T06:41:22;3.00;99.90
10433;DHT22;5263;48.680;9.004;2023-03-17T06:43:48;3.10;99.90
10433;DHT22;5263;48.680;9.004;2023-03-17T06:46:14;3.50;99.90
10433;DHT22;5263;48.680;9.004;2023-03-17T06:48:39;3.80;99.90
10433;DHT22;5263;48.680;9.004;2023-03-17T06:51:05;4.40;99.90
10433;DHT22;5263;48.680;9.004;2023-03-17T06:53:31;4.60;99.90
10433;DHT22;5263;48.680;9.004;2023-03-17T06:55:57;4.90;99.90
10433;DHT22;5263;48.680;9.004;2023-03-17T06:58:23;5.20;99.90
10433;DHT22;5263;48.680;9.004;2023-03-17T07:00:49;5.50;99.90
10433;DHT22;5263;48.680;9.004;2023-03-17T07:03:17;5.50;99.90
10433;DHT22;5263;48.680;9.004;2023-03-17T07:05:43;5.60;99.90
10433;DHT22;5263;48.680;9.004;2023-03-17T07:08:09;5.90;99.90
10433;DHT22;5263;48.680;9.004;2023-03-17T07:10:35;6.20;99.90
10433;DHT22;5263;48.680;9.004;2023-03-17T07:13:01;6.50;99.90
10433;DHT22;5263;48.680;9.004;2023-03-17T07:15:27;6.70;99.90
10433;DHT22;5263;48.680;9.004;2023-03-17T07:17:53;7.00;99.90
10433;DHT22;5263;48.680;9.004;2023-03-17T07:20:19;7.10;99.90
10433;DHT22;5263;48.680;9.004;2023-03-17T07:22:45;7.30;99.90
10433;DHT22;5263;48.680;9.004;2023-03-17T07:25:11;7.50;99.90
10433;DHT22;5263;48.680;9.004;2023-03-17T07:27:37;7.70;99.90
10433;DHT22;5263;48.680;9.004;2023-03-17T07:30:03;7.80;99.90
10433;DHT22;5263;48.680;9.004;2023-03-17T07:32:29;8.00;99.90
10433;DHT22;5263;48.680;9.004;2023-03-17T07:34:55;8.10;99.90
10433;DHT22;5263;48.680;9.004;2023-03-17T07:37:22;8.30;99.90
10433;DHT22;5263;48.680;9.004;2023-03-17T07:39:48;8.20;99.90
10433;DHT22;5263;48.680;9.004;2023-03-17T07:42:14;8.40;99.90
10433;DHT22;5263;48.680;9.004;2023-03-17T07:44:40;8.50;99.90
10433;DHT22;5263;48.680;9.004;2023-03-17T07:47:07;8.70;99.90
10433;DHT22;5263;48.680;9.004;2023-03-17T07:49:33;8.80;99.90
10433;DHT22;5263;48.680;9.004;2023-03-17T07:51:59;8.80;99.90
10433;DHT22;5263;48.680;9.004;2023-03-17T07:54:24;8.80;99.90
10433;DHT22;5263;48.680;9.004;2023-03-17T07:56:51;9.10;99.90
10433;DHT22;5263;48.680;9.004;2023-03-17T07:59:17;9.20;99.90
10433;DHT22;5263;48.680;9.004;2023-03-17T08:01:43;9.30;99.90
10433;DHT22;5263;48.680;9.004;2023-03-17T08:04:09;9.50;99.90
10433;DHT22;5263;48.680;9.004;2023-03-17T08:06:38;9.70;99.90
10433;DHT22;5263;48.680;9.004;2023-03-17T08:09:07;9.90;99.90
10433;DHT22;5263;48.680;9.004;2023-03-17T08:11:34;10.10;99.90
10433;DHT22;5263;48.680;9.004;2023-03-17T08:13:59;10.10;99.90
10433;DHT22;5263;48.680;9.004;2023-03-17T08:16:27;10.50;99.90
10433;DHT22;5263;48.680;9.004;2023-03-17T08:18:53;10.60;99.90
10433;DHT22;5263;48.680;9.004;2023-03-17T08:21:19;10.50;99.90
10433;DHT22;5263;48.680;9.004;2023-03-17T08:23:45;10.50;99.90
10433;DHT22;5263;48.680;9.004;2023-03-17T08:26:12;10.80;99.90
10433;DHT22;5263;48.680;9.004;2023-03-17T08:28:38;10.70;99.90
10433;DHT22;5263;48.680;9.004;2023-03-17T08:31:12;10.80;99.90
10433;DHT22;5263;48.680;9.004;2023-03-17T08:33:42;10.80;99.90
10433;DHT22;5263;48.680;9.004;2023-03-17T08:36:10;11.00;99.90
10433;DHT22;5263;48.680;9.004;2023-03-17T08:38:36;11.00;99.80
10433;DHT22;5263;48.680;9.004;2023-03-17T08:41:04;11.00;99.40
10433;DHT22;5263;48.680;9.004;2023-03-17T08:43:31;11.00;99.10
10433;DHT22;5263;48.680;9.004;2023-03-17T08:46:05;11.20;99.00
10433;DHT22;5263;48.680;9.004;2023-03-17T08:48:33;11.30;98.90
10433;DHT22;5263;48.680;9.004;2023-03-17T08:51:00;11.40;99.90
10433;DHT22;5263;48.680;9.004;2023-03-17T08:53:25;11.40;99.90
10433;DHT22;5263;48.680;9.004;2023-03-17T08:55:54;11.50;98.70
10433;DHT22;5263;48.680;9.004;2023-03-17T08:58:20;11.60;97.30
10433;DHT22;5263;48.680;9.004;2023-03-17T09:00:46;11.50;96.50
10433;DHT22;5263;48.680;9.004;2023-03-17T09:03:12;11.50;96.90
10433;DHT22;5263;48.680;9.004;2023-03-17T09:05:38;11.40;96.80
10433;DHT22;5263;48.680;9.004;2023-03-17T09:08:03;11.70;97.80
10433;DHT22;5263;48.680;9.004;2023-03-17T09:10:29;12.00;98.10
10433;DHT22;5263;48.680;9.004;2023-03-17T09:12:55;12.10;96.90
10433;DHT22;5263;48.680;9.004;2023-03-17T09:15:27;12.50;97.40
10433;DHT22;5263;48.680;9.004;2023-03-17T09:17:53;12.90;95.50
10433;DHT22;5263;48.680;9.004;2023-03-17T09:20:18;13.30;95.80
10433;DHT22;5263;48.680;9.004;2023-03-17T09:22:45;13.40;95.50
10433;DHT22;5263;48.680;9.004;2023-03-17T09:25:12;13.60;93.80
10433;DHT22;5263;48.680;9.004;2023-03-17T09:27:39;13.80;92.70
10433;DHT22;5263;48.680;9.004;2023-03-17T09:30:05;14.00;92.80
10433;DHT22;5263;48.680;9.004;2023-03-17T09:32:30;14.00;93.30
10433;DHT22;5263;48.680;9.004;2023-03-17T09:34:57;14.20;93.90
10433;DHT22;5263;48.680;9.004;2023-03-17T09:37:22;14.20;92.20
10433;DHT22;5263;48.680;9.004;2023-03-17T09:39:48;14.20;91.20
10433;DHT22;5263;48.680;9.004;2023-03-17T09:42:17;14.40;92.70
10433;DHT22;5263;48.680;9.004;2023-03-17T09:50:18;15.00;90.80
10433;DHT22;5263;48.680;9.004;2023-03-17T09:52:47;15.40;89.10
10433;DHT22;5263;48.680;9.004;2023-03-17T09:55:23;16.00;86.60
10433;DHT22;5263;48.680;9.004;2023-03-17T09:57:50;17.90;87.40
10433;DHT22;5263;48.680;9.004;2023-03-17T10:00:20;21.60;71.80
10433;DHT22;5263;48.680;9.004;2023-03-17T10:02:51;24.70;57.50
10433;DHT22;5263;48.680;9.004;2023-03-17T10:05:26;26.00;49.50
10433;DHT22;5263;48.680;9.004;2023-03-17T10:18:28;27.70;38.00
10433;DHT22;5263;48.680;9.004;2023-03-17T10:21:00;27.20;38.20
10433;DHT22;5263;48.680;9.004;2023-03-17T10:23:30;26.00;36.30
10433;DHT22;5263;48.680;9.004;2023-03-17T10:26:04;24.60;38.70
10433;DHT22;5263;48.680;9.004;2023-03-17T10:28:34;24.70;39.00
10433;DHT22;5263;48.680;9.004;2023-03-17T10:31:18;23.20;42.40
10433;DHT22;5263;48.680;9.004;2023-03-17T10:33:48;22.70;43.20
10433;DHT22;5263;48.680;9.004;2023-03-17T10:36:15;22.30;42.00
10433;DHT22;5263;48.680;9.004;2023-03-17T10:38:51;23.00;42.20
10433;DHT22;5263;48.680;9.004;2023-03-17T10:41:18;24.50;40.20
10433;DHT22;5263;48.680;9.004;2023-03-17T10:43:48;24.40;38.60
10433;DHT22;5263;48.680;9.004;2023-03-17T10:46:25;24.60;37.70
10433;DHT22;5263;48.680;9.004;2023-03-17T10:48:56;24.70;37.40
10433;DHT22;5263;48.680;9.004;2023-03-17T10:51:30;24.40;37.60
10433;DHT22;5263;48.680;9.004;2023-03-17T10:53:59;24.10;40.40
10433;DHT22;5263;48.680;9.004;2023-03-17T10:56:27;25.30;40.80
10433;DHT22;5263;48.680;9.004;2023-03-17T10:58:55;25.20;39.20
10433;DHT22;5263;48.680;9.004;2023-03-17T11:01:42;24.50;38.20
10433;DHT22;5263;48.680;9.004;2023-03-17T11:04:28;24.60;38.40
10433;DHT22;5263;48.680;9.004;2023-03-17T11:06:59;24.00;40.30
10433;DHT22;5263;48.680;9.004;2023-03-17T11:09:33;24.40;38.90
10433;DHT22;5263;48.680;9.004;2023-03-17T11:12:05;25.30;38.30
10433;DHT22;5263;48.680;9.004;2023-03-17T11:14:32;26.10;37.80
10433;DHT22;5263;48.680;9.004;2023-03-17T11:17:03;26.20;37.00
10433;DHT22;5263;48.680;9.004;2023-03-17T11:19:42;25.40;36.90
10433;DHT22;5263;48.680;9.004;2023-03-17T11:22:23;25.10;36.00
10433;DHT22;5263;48.680;9.004;2023-03-17T11:25:17;24.30;38.10
10433;DHT22;5263;48.680;9.004;2023-03-17T11:30:30;24.80;37.50
10433;DHT22;5263;48.680;9.004;2023-03-17T11:44:29;26.80;32.40
10433;DHT22;5263;48.680;9.004;2023-03-17T11:47:21;26.20;35.50
10433;DHT22;5263;48.680;9.004;2023-03-17T11:50:22;26.60;33.30
10433;DHT22;5263;48.680;9.004;2023-03-17T11:56:09;26.30;33.70
10433;DHT22;5263;48.680;9.004;2023-03-17T11:58:42;26.60;33.00
10433;DHT22;5263;48.680;9.004;2023-03-17T12:01:13;25.70;32.40
10433;DHT22;5263;48.680;9.004;2023-03-17T12:03:47;24.40;34.00
10433;DHT22;5263;48.680;9.004;2023-03-17T12:06:29;24.20;37.10
10433;DHT22;5263;48.680;9.004;2023-03-17T12:09:31;24.40;36.30
10433;DHT22;5263;48.680;9.004;2023-03-17T12:12:00;24.60;34.90
10433;DHT22;5263;48.680;9.004;2023-03-17T12:14:37;24.80;36.20
10433;DHT22;5263;48.680;9.004;2023-03-17T12:17:10;25.60;36.30
10433;DHT22;5263;48.680;9.004;2023-03-17T12:22:30;25.40;34.30
10433;DHT22;5263;48.680;9.004;2023-03-17T12:27:53;25.50;36.50
10433;DHT22;5263;48.680;9.004;2023-03-17T12:36:13;24.40;34.90
10433;DHT22;5263;48.680;9.004;2023-03-17T12:39:00;24.00;35.70
10433;DHT22;5263;48.680;9.004;2023-03-17T12:41:48;24.00;36.80
10433;DHT22;5263;48.680;9.004;2023-03-17T12:55:02;24.00;37.60
10433;DHT22;5263;48.680;9.004;2023-03-17T12:57:38;23.10;36.10
10433;DHT22;5263;48.680;9.004;2023-03-17T13:00:26;22.70;37.40
10433;DHT22;5263;48.680;9.004;2023-03-17T13:05:50;22.80;36.60
10433;DHT22;5263;48.680;9.004;2023-03-17T13:08:43;22.90;35.00
10433;DHT22;5263;48.680;9.004;2023-03-17T13:11:45;22.50;33.80
10433;DHT22;5263;48.680;9.004;2023-03-17T13:14:45;22.50;35.20
10433;DHT22;5263;48.680;9.004;2023-03-17T13:23:02;23.00;34.90
10433;DHT22;5263;48.680;9.004;2023-03-17T13:25:34;22.60;34.60
10433;DHT22;5263;48.680;9.004;2023-03-17T13:33:17;22.60;34.50
10433;DHT22;5263;48.680;9.004;2023-03-17T13:45:50;22.60;35.20
10433;DHT22;5263;48.680;9.004;2023-03-17T13:51:20;22.70;35.30
10433;DHT22;5263;48.680;9.004;2023-03-17T13:53:51;23.00;35.80
10433;DHT22;5263;48.680;9.004;2023-03-17T14:01:29;23.90;33.50
10433;DHT22;5263;48.680;9.004;2023-03-17T14:03:57;23.50;37.20
10433;DHT22;5263;48.680;9.004;2023-03-17T14:06:27;23.00;37.20
10433;DHT22;5263;48.680;9.004;2023-03-17T14:09:01;23.00;37.00
10433;DHT22;5263;48.680;9.004;2023-03-17T14:11:35;23.10;37.50
10433;DHT22;5263;48.680;9.004;2023-03-17T14:14:26;22.60;40.10
10433;DHT22;5263;48.680;9.004;2023-03-17T14:17:07;22.90;41.20
10433;DHT22;5263;48.680;9.004;2023-03-17T14:19:33;23.10;40.80
10433;DHT22;5263;48.680;9.004;2023-03-17T14:22:16;23.10;40.30
10433;DHT22;5263;48.680;9.004;2023-03-17T14:24:42;22.60;40.10
10433;DHT22;5263;48.680;9.004;2023-03-17T14:27:10;22.60;41.70
10433;DHT22;5263;48.680;9.004;2023-03-17T14:29:36;22.50;42.60
10433;DHT22;5263;48.680;9.004;2023-03-17T14:32:05;22.30;42.70
10433;DHT22;5263;48.680;9.004;2023-03-17T14:34:31;22.30;42.30
10433;DHT22;5263;48.680;9.004;2023-03-17T14:37:01;21.70;42.60
10433;DHT22;5263;48.680;9.004;2023-03-17T14:39:27;21.40;42.80
10433;DHT22;5263;48.680;9.004;2023-03-17T14:42:01;21.80;44.90
10433;DHT22;5263;48.680;9.004;2023-03-17T14:44:34;22.00;43.30
10433;DHT22;5263;48.680;9.004;2023-03-17T14:47:01;22.60;43.00
10433;DHT22;5263;48.680;9.004;2023-03-17T14:49:27;22.90;42.90
10433;DHT22;5263;48.680;9.004;2023-03-17T14:51:53;22.30;41.60
10433;DHT22;5263;48.680;9.004;2023-03-17T14:54:25;22.20;42.50
10433;DHT22;5263;48.680;9.004;2023-03-17T14:56:54;22.00;43.30
10433;DHT22;5263;48.680;9.004;2023-03-17T15:02:00;21.40;43.30
10433;DHT22;5263;48.680;9.004;2023-03-17T15:04:31;21.60;42.80
10433;DHT22;5263;48.680;9.004;2023-03-17T15:07:02;21.50;43.80
10433;DHT22;5263;48.680;9.004;2023-03-17T15:12:22;21.30;44.10
10433;DHT22;5263;48.680;9.004;2023-03-17T15:14:54;21.30;44.80
10433;DHT22;5263;48.680;9.004;2023-03-17T15:17:25;21.10;43.80
10433;DHT22;5263;48.680;9.004;2023-03-17T15:19:53;21.10;42.40
10433;DHT22;5263;48.680;9.004;2023-03-17T15:22:26;21.20;43.00
10433;DHT22;5263;48.680;9.004;2023-03-17T15:25:16;21.30;43.10
10433;DHT22;5263;48.680;9.004;2023-03-17T15:27:43;20.80;45.40
10433;DHT22;5263;48.680;9.004;2023-03-17T15:30:10;20.70;46.30
10433;DHT22;5263;48.680;9.004;2023-03-17T15:32:36;20.60;46.20
10433;DHT22;5263;48.680;9.004;2023-03-17T15:35:02;20.30;46.50
10433;DHT22;5263;48.680;9.004;2023-03-17T15:37:29;20.00;47.40
10433;DHT22;5263;48.680;9.004;2023-03-17T15:39:56;19.90;47.00
10433;DHT22;5263;48.680;9.004;2023-03-17T15:42:25;19.80;47.80
10433;DHT22;5263;48.680;9.004;2023-03-17T15:44:51;19.70;47.30
10433;DHT22;5263;48.680;9.004;2023-03-17T15:47:19;19.80;48.40
10433;DHT22;5263;48.680;9.004;2023-03-17T15:49:46;19.50;47.40
10433;DHT22;5263;48.680;9.004;2023-03-17T15:52:17;19.60;47.40
10433;DHT22;5263;48.680;9.004;2023-03-17T15:54:46;19.40;48.80
10433;DHT22;5263;48.680;9.004;2023-03-17T15:57:11;19.30;48.10
10433;DHT22;5263;48.680;9.004;2023-03-17T15:59:38;19.20;48.40
10433;DHT22;5263;48.680;9.004;2023-03-17T16:02:23;19.10;49.00
10433;DHT22;5263;48.680;9.004;2023-03-17T16:04:49;19.10;49.40
10433;DHT22;5263;48.680;9.004;2023-03-17T16:07:15;19.10;49.30
10433;DHT22;5263;48.680;9.004;2023-03-17T16:09:42;18.90;49.70
10433;DHT22;5263;48.680;9.004;2023-03-17T16:12:10;19.10;50.40
10433;DHT22;5263;48.680;9.004;2023-03-17T16:14:36;18.90;50.70
10433;DHT22;5263;48.680;9.004;2023-03-17T16:17:03;18.90;50.60
10433;DHT22;5263;48.680;9.004;2023-03-17T16:19:28;18.80;50.60
10433;DHT22;5263;48.680;9.004;2023-03-17T16:21:55;18.70;51.20
10433;DHT22;5263;48.680;9.004;2023-03-17T16:24:23;18.60;51.60
10433;DHT22;5263;48.680;9.004;2023-03-17T16:26:49;18.70;52.00
10433;DHT22;5263;48.680;9.004;2023-03-17T16:29:16;18.70;52.00
10433;DHT22;5263;48.680;9.004;2023-03-17T16:31:45;18.40;50.90
10433;DHT22;5263;48.680;9.004;2023-03-17T16:34:20;18.20;51.30
10433;DHT22;5263;48.680;9.004;2023-03-17T16:36:46;18.20;51.80
10433;DHT22;5263;48.680;9.004;2023-03-17T16:39:15;18.20;52.30
10433;DHT22;5263;48.680;9.004;2023-03-17T16:41:44;18.30;53.60
10433;DHT22;5263;48.680;9.004;2023-03-17T16:44:11;17.90;51.70
10433;DHT22;5263;48.680;9.004;2023-03-17T16:46:38;17.80;52.00
10433;DHT22;5263;48.680;9.004;2023-03-17T16:49:04;17.70;52.60
10433;DHT22;5263;48.680;9.004;2023-03-17T16:51:29;17.70;53.50
10433;DHT22;5263;48.680;9.004;2023-03-17T16:53:55;17.50;54.70
10433;DHT22;5263;48.680;9.004;2023-03-17T16:56:22;17.60;54.50
10433;DHT22;5263;48.680;9.004;2023-03-17T16:58:49;17.40;54.10
10433;DHT22;5263;48.680;9.004;2023-03-17T17:01:21;17.50;54.70
10433;DHT22;5263;48.680;9.004;2023-03-17T17:03:49;17.30;54.40
10433;DHT22;5263;48.680;9.004;2023-03-17T17:06:14;17.20;53.90
10433;DHT22;5263;48.680;9.004;2023-03-17T17:08:42;17.00;54.40
10433;DHT22;5263;48.680;9.004;2023-03-17T17:11:09;16.90;54.50
10433;DHT22;5263;48.680;9.004;2023-03-17T17:13:40;16.80;55.60
10433;DHT22;5263;48.680;9.004;2023-03-17T17:16:17;16.70;55.30
10433;DHT22;5263;48.680;9.004;2023-03-17T17:18:44;16.50;55.90
10433;DHT22;5263;48.680;9.004;2023-03-17T17:21:11;16.40;56.50
10433;DHT22;5263;48.680;9.004;2023-03-17T17:23:37;16.30;56.80
10433;DHT22;5263;48.680;9.004;2023-03-17T17:26:02;16.20;57.70
10433;DHT22;5263;48.680;9.004;2023-03-17T17:28:28;16.10;58.20
10433;DHT22;5263;48.680;9.004;2023-03-17T17:30:54;16.00;58.60
10433;DHT22;5263;48.680;9.004;2023-03-17T17:33:20;16.00;58.50
10433;DHT22;5263;48.680;9.004;2023-03-17T17:35:47;15.80;59.20
10433;DHT22;5263;48.680;9.004;2023-03-17T17:38:33;15.70;59.20
10433;DHT22;5263;48.680;9.004;2023-03-17T17:40:59;15.40;59.70